V/Λ SELECT: Month and Year
OR > Month
Monthly Climatological Summary for Sep 2012
Name: www.delerius-weather.com City: Winterton State: North Lincolnshire
Elevation: 42 m Lat: N 53° 39' 10" Lon: W 000° 36' 49"
Temperature (°C), Rain (mm), Wind Speed (mph)
Heat Cool Avg
Mean Deg Deg Wind Dom
Day Temp High Time Low Time Days Days Rain Speed High Time Dir
----------------------------------------------------------------------------------
1 14.4 20.7 21:00 10.7 02:15 14.4 0.0 0.0 1.0 18.0 21:45 SSE
2 14.8 23.4 21:00 12.3 02:15 14.4 0.0 13.4 7.7 21.0 10:45 SSW
3 15.6 24.2 21:00 11.1 02:15 14.4 0.0 4.4 3.2 15.0 14:15 SE
4 16.2 24.6 21:00 12.3 02:15 14.4 0.0 6.0 0.0 2.0 18:45 S
5 12.4 15.8 21:00 10.0 02:15 14.4 0.0 0.0 0.6 9.0 22:45 SE
6 14.2 20.4 21:00 10.2 02:15 14.4 0.0 0.0 11.1 36.0 15:15 S
7 16.4 24.7 21:00 12.6 02:15 14.4 0.0 0.0 10.9 25.0 11:45 S
8 16.9 25.7 21:00 11.7 02:15 14.4 0.0 0.2 1.1 15.0 00:45 ESE
9 17.2 27.4 21:00 9.2 02:15 14.4 0.0 2.6 3.6 25.0 20:15 S
10 15.0 21.4 21:00 14.1 02:15 14.4 0.0 0.0 5.8 30.0 23:15 SSE
11 13.7 18.2 21:00 8.6 02:15 14.4 0.0 0.2 13.6 35.0 01:45 SSE
12 9.1 14.5 21:00 5.3 02:15 14.4 0.0 4.0 12.6 28.0 11:45 SSW
13 9.7 16.7 21:00 6.4 02:15 14.4 0.0 0.0 3.3 35.0 23:00 SSE
14 13.8 19.0 21:00 10.1 02:15 14.4 0.0 0.0 16.7 39.0 11:15 WNW
15 12.6 22.1 21:00 7.3 02:15 14.4 0.0 0.0 10.4 24.0 10:45 WSW
16 13.9 20.3 21:00 9.0 02:15 14.4 0.0 0.4 13.7 33.0 20:00 W
17 12.7 18.6 21:00 7.8 02:15 14.4 0.0 0.0 14.5 33.0 16:45 W
18 11.6 17.0 21:00 6.6 02:15 14.4 0.0 0.2 14.7 32.0 14:00 WNW
19 10.9 16.4 21:00 5.2 02:15 14.4 0.0 0.0 10.3 25.0 16:30 W
20 11.2 17.8 21:00 6.9 02:15 14.4 0.0 0.2 12.1 25.0 17:30 WSW
21 11.0 13.1 21:00 9.2 02:15 14.4 0.0 3.4 13.0 27.0 04:30 NNW
22 9.4 13.3 21:00 4.9 02:15 14.4 0.0 0.0 5.9 20.0 11:00 SE
23 8.9 12.7 21:00 4.4 02:15 14.4 0.0 1.8 11.0 31.0 23:30 E
24 10.1 13.0 21:00 9.1 02:15 14.4 0.0 8.8 18.9 37.0 22:00 WSW
25 10.4 14.1 21:00 8.6 02:15 14.4 0.0 0.2 20.2 44.0 16:15 S
26 10.6 14.8 21:00 9.4 02:15 14.4 0.0 0.0 10.2 25.0 01:45 NNE
27 11.6 15.1 21:00 9.5 02:15 14.4 0.0 0.8 7.2 25.0 00:30 W
28 10.7 15.7 21:00 8.2 02:15 14.4 0.0 2.2 12.0 29.0 10:15 W
29 10.4 16.2 21:00 7.6 02:15 14.4 0.0 0.0 14.3 33.0 12:30 WSW
30 10.3 16.7 21:00 6.7 02:15 14.4 0.0 0.2 15.6 37.0 17:15 WSW
----------------------------------------------------------------------------------
12.5 27.4 1 4.4 1 432.0 0.0 49.0 9.8 44.0 25 WSW
Max >= 27.0: 0
Max <= 0.0: 0
Min <= 0.0: 0
Min <= -18.0: 0
Max Rain: 13.4 on day 2
Days of Rain: 17 (>= 0.2 mm) 8 (>= 2.0 mm) 0 (>= 20.0 mm)
Heat Base: 18.3 Cool Base: 18.3 Method: Integration